createdAt,value
2023-05-18T00:00:30.526Z,0.40
2023-05-18T00:03:01.499Z,0.40
2023-05-18T00:05:33.988Z,0.33
2023-05-18T00:08:03.307Z,0.40
2023-05-18T00:10:31.647Z,0.40
2023-05-18T00:12:59.543Z,0.40
2023-05-18T00:15:27.868Z,0.40
2023-05-18T00:17:57.136Z,0.30
2023-05-18T00:20:26.614Z,0.40
2023-05-18T00:22:54.589Z,0.40
2023-05-18T00:25:24.185Z,0.40
2023-05-18T00:27:52.295Z,0.40
2023-05-18T00:30:21.105Z,0.40
2023-05-18T00:32:49.112Z,0.40
2023-05-18T00:35:17.098Z,0.40
2023-05-18T00:37:45.131Z,0.40
2023-05-18T00:40:13.833Z,0.40
2023-05-18T00:42:43.068Z,0.40
2023-05-18T00:45:11.718Z,0.30
2023-05-18T00:47:39.971Z,0.50
2023-05-18T00:50:10.014Z,0.40
2023-05-18T00:52:39.747Z,0.40
2023-05-18T00:55:09.264Z,0.50
2023-05-18T00:57:42.107Z,0.50
2023-05-18T01:00:14.054Z,0.40
2023-05-18T01:02:45.342Z,0.30
2023-05-18T01:05:14.069Z,0.40
2023-05-18T01:07:43.907Z,0.40
2023-05-18T01:10:13.319Z,0.30
2023-05-18T01:12:46.999Z,0.40
2023-05-18T01:15:19.620Z,0.40
2023-05-18T01:18:00.920Z,0.40
2023-05-18T01:20:37.889Z,0.30
2023-05-18T01:23:52.335Z,0.40
2023-05-18T01:26:29.870Z,0.40
2023-05-18T01:29:00.854Z,0.50
2023-05-18T01:31:29.083Z,0.43
2023-05-18T01:33:57.015Z,0.30
2023-05-18T01:36:26.079Z,0.40
2023-05-18T01:38:55.318Z,0.40
2023-05-18T01:41:28.168Z,0.30
2023-05-18T01:44:02.900Z,0.40
2023-05-18T01:46:37.732Z,0.30
2023-05-18T01:49:14.717Z,0.40
2023-05-18T01:51:46.354Z,0.30
2023-05-18T01:54:18.390Z,0.40
2023-05-18T01:56:49.886Z,0.30
2023-05-18T01:59:18.840Z,0.40
2023-05-18T02:01:46.714Z,0.50
2023-05-18T02:04:14.839Z,0.33
2023-05-18T02:06:43.012Z,0.40
2023-05-18T02:09:13.355Z,0.40
2023-05-18T02:11:41.537Z,0.40
2023-05-18T02:14:40.973Z,0.40
2023-05-18T02:17:09.254Z,0.47
2023-05-18T02:19:38.378Z,0.40
2023-05-18T02:22:11.605Z,0.40
2023-05-18T02:24:46.248Z,0.40
2023-05-18T02:27:21.422Z,0.37
2023-05-18T02:29:52.845Z,0.40
2023-05-18T02:32:21.815Z,0.40
2023-05-18T02:34:53.350Z,0.37
2023-05-18T02:37:23.276Z,0.47
2023-05-18T02:39:51.292Z,0.40
2023-05-18T02:42:19.316Z,0.40
2023-05-18T02:44:47.217Z,0.30
2023-05-18T02:47:16.672Z,0.30
2023-05-18T02:49:45.205Z,0.40
2023-05-18T02:52:13.407Z,0.40
2023-05-18T02:54:41.533Z,0.30
2023-05-18T02:57:11.970Z,0.40
2023-05-18T02:59:39.960Z,0.20
2023-05-18T03:02:08.097Z,0.40
2023-05-18T03:04:37.892Z,0.30
2023-05-18T03:07:08.072Z,0.30
2023-05-18T03:09:36.348Z,0.30
2023-05-18T03:12:04.462Z,0.30
2023-05-18T03:14:32.439Z,0.30
2023-05-18T03:17:00.543Z,0.40
2023-05-18T03:19:28.594Z,0.30
2023-05-18T03:21:58.940Z,0.37
2023-05-18T03:24:30.409Z,0.40
2023-05-18T03:27:00.980Z,0.40
2023-05-18T03:29:31.330Z,0.30
2023-05-18T03:32:00.003Z,0.30
2023-05-18T03:34:30.267Z,0.30
2023-05-18T03:37:00.024Z,0.23
2023-05-18T03:39:28.076Z,0.40
2023-05-18T03:41:57.154Z,0.40
2023-05-18T03:44:25.325Z,0.40
2023-05-18T03:46:53.564Z,0.37
2023-05-18T03:49:21.590Z,0.40
2023-05-18T03:51:49.496Z,0.40
2023-05-18T03:54:18.735Z,0.40
2023-05-18T03:56:48.380Z,0.40
2023-05-18T03:59:16.478Z,0.30
2023-05-18T04:01:44.659Z,0.30
2023-05-18T04:04:17.963Z,0.30
2023-05-18T04:06:47.199Z,0.30
2023-05-18T04:09:17.313Z,0.30
2023-05-18T04:11:47.116Z,0.30
2023-05-18T04:14:17.110Z,0.30
2023-05-18T04:16:46.382Z,0.30
2023-05-18T04:19:14.982Z,0.30
2023-05-18T04:21:43.603Z,0.30
2023-05-18T04:24:14.573Z,0.30
2023-05-18T04:26:46.560Z,0.20
2023-05-18T04:29:15.588Z,0.30
2023-05-18T04:31:45.044Z,0.30
2023-05-18T04:34:13.824Z,0.20
2023-05-18T04:36:43.904Z,0.30
2023-05-18T04:39:12.567Z,0.30
2023-05-18T04:41:42.193Z,0.30
2023-05-18T04:44:14.073Z,0.30
2023-05-18T04:46:43.275Z,0.20
2023-05-18T04:49:14.054Z,0.20
2023-05-18T04:51:43.690Z,0.23
2023-05-18T04:54:13.091Z,0.23
2023-05-18T04:56:41.290Z,0.20
2023-05-18T04:59:11.092Z,0.20
2023-05-18T05:01:40.352Z,0.30
2023-05-18T05:04:08.494Z,0.30
2023-05-18T05:06:38.727Z,0.20
2023-05-18T05:09:06.818Z,0.20
2023-05-18T05:11:35.309Z,0.20
2023-05-18T05:14:03.995Z,0.30
2023-05-18T05:16:35.064Z,0.20
2023-05-18T05:19:03.769Z,0.27
2023-05-18T05:21:32.289Z,0.30
2023-05-18T05:24:01.688Z,0.23
2023-05-18T05:26:29.624Z,0.20
2023-05-18T05:28:57.491Z,0.30
2023-05-18T05:31:26.957Z,0.20
2023-05-18T05:33:56.242Z,0.20
2023-05-18T05:36:24.157Z,0.20
2023-05-18T05:38:53.421Z,0.27
2023-05-18T05:41:23.414Z,0.20
2023-05-18T05:43:51.513Z,0.20
2023-05-18T05:46:19.605Z,0.20
2023-05-18T05:48:48.008Z,0.20
2023-05-18T05:51:17.806Z,0.20
2023-05-18T05:53:49.764Z,0.30
2023-05-18T05:56:17.820Z,0.20
2023-05-18T05:58:46.104Z,0.20
2023-05-18T06:01:14.118Z,0.20
2023-05-18T06:03:42.871Z,0.30
2023-05-18T06:06:11.345Z,0.20
2023-05-18T06:08:40.789Z,0.20
2023-05-18T06:11:10.758Z,0.20
2023-05-18T06:13:39.489Z,0.20
2023-05-18T06:16:07.560Z,0.20
2023-05-18T06:18:36.893Z,0.23
2023-05-18T06:21:06.315Z,0.20
2023-05-18T06:23:34.293Z,0.20
2023-05-18T06:26:04.040Z,0.20
2023-05-18T06:28:32.142Z,0.20
2023-05-18T06:31:00.298Z,0.20
2023-05-18T06:33:28.507Z,0.20
2023-05-18T06:35:57.127Z,0.27
2023-05-18T06:38:25.246Z,0.20
2023-05-18T06:40:53.435Z,0.30
2023-05-18T06:43:23.120Z,0.20
2023-05-18T06:45:51.307Z,0.20
2023-05-18T06:48:19.392Z,0.30
2023-05-18T06:50:47.383Z,0.20
2023-05-18T06:53:17.361Z,0.20
2023-05-18T06:55:47.388Z,0.20
2023-05-18T06:58:24.424Z,0.20
2023-05-18T07:00:58.124Z,0.20
2023-05-18T07:03:28.230Z,0.10
2023-05-18T07:05:58.281Z,0.30
2023-05-18T07:08:33.063Z,0.27
2023-05-18T07:11:08.135Z,0.20
2023-05-18T07:13:37.806Z,0.20
2023-05-18T07:16:07.457Z,0.20
2023-05-18T07:18:35.763Z,0.20
2023-05-18T07:21:03.815Z,0.20
2023-05-18T07:23:32.950Z,0.20
2023-05-18T07:26:00.967Z,0.30
2023-05-18T07:28:28.998Z,0.20
2023-05-18T07:30:58.349Z,0.30
2023-05-18T07:33:26.403Z,0.30
2023-05-18T07:35:54.498Z,0.20
2023-05-18T07:38:24.144Z,0.20
2023-05-18T07:40:52.130Z,0.20
2023-05-18T07:43:20.080Z,0.20
2023-05-18T07:45:48.207Z,0.20
2023-05-18T07:48:17.758Z,0.20
2023-05-18T07:50:45.917Z,0.20
2023-05-18T07:53:14.034Z,0.20
2023-05-18T07:55:42.534Z,0.20
2023-05-18T07:58:10.703Z,0.20
2023-05-18T08:00:38.958Z,0.20
2023-05-18T08:03:07.754Z,0.20
2023-05-18T08:05:38.185Z,0.20
2023-05-18T08:08:06.930Z,0.20
2023-05-18T08:10:35.602Z,0.20
2023-05-18T08:13:03.530Z,0.20
2023-05-18T08:15:34.664Z,0.20
2023-05-18T08:18:02.844Z,0.20
2023-05-18T08:20:31.849Z,0.20
2023-05-18T08:23:08.362Z,0.20
2023-05-18T08:25:37.762Z,0.20
2023-05-18T08:28:05.972Z,0.20
2023-05-18T08:30:38.504Z,0.23
2023-05-18T08:33:06.564Z,0.20
2023-05-18T08:35:34.595Z,0.20
2023-05-18T08:38:05.787Z,0.20
2023-05-18T08:40:38.740Z,0.20
2023-05-18T08:43:13.867Z,0.20
2023-05-18T08:45:45.223Z,0.20
2023-05-18T08:48:16.629Z,0.20
2023-05-18T08:50:45.680Z,0.20
2023-05-18T08:53:19.000Z,0.20
2023-05-18T08:55:48.787Z,0.20
2023-05-18T08:58:21.059Z,0.20
2023-05-18T09:00:53.861Z,0.20
2023-05-18T09:03:23.392Z,0.30
2023-05-18T09:05:53.387Z,0.20
2023-05-18T09:08:23.201Z,0.20
2023-05-18T09:10:52.836Z,0.20
2023-05-18T09:13:21.809Z,0.20
2023-05-18T09:15:51.539Z,0.20
2023-05-18T09:18:22.052Z,0.20
2023-05-18T09:20:52.204Z,0.20
2023-05-18T09:23:20.263Z,0.20
2023-05-18T09:25:50.826Z,0.20
2023-05-18T09:28:27.957Z,0.20
2023-05-18T09:30:56.219Z,0.20
2023-05-18T09:33:24.552Z,0.20
2023-05-18T09:35:53.116Z,0.20
2023-05-18T09:38:23.506Z,0.30
2023-05-18T09:40:54.092Z,0.20
2023-05-18T09:43:22.284Z,0.20
2023-05-18T09:45:58.353Z,0.20
2023-05-18T09:48:31.827Z,0.20
2023-05-18T09:51:00.552Z,0.20
2023-05-18T09:53:28.635Z,0.20
2023-05-18T09:56:05.049Z,0.20
2023-05-18T09:58:33.970Z,0.20
2023-05-18T10:01:02.982Z,0.20
2023-05-18T10:03:36.848Z,0.20
2023-05-18T10:06:12.375Z,0.30
2023-05-18T10:08:45.707Z,0.20
2023-05-18T10:11:19.929Z,0.30
2023-05-18T10:13:48.383Z,0.20
2023-05-18T10:16:17.892Z,0.20
2023-05-18T10:18:47.155Z,0.20
2023-05-18T10:21:17.329Z,0.20
2023-05-18T10:23:51.442Z,0.20
2023-05-18T10:26:23.963Z,0.20
2023-05-18T10:28:54.400Z,0.20
2023-05-18T10:31:24.396Z,0.20
2023-05-18T10:33:54.258Z,0.20
2023-05-18T10:36:25.596Z,0.20
2023-05-18T10:38:54.094Z,0.20
2023-05-18T10:41:26.048Z,0.20
2023-05-18T10:44:03.439Z,0.20
2023-05-18T10:46:32.343Z,0.20
2023-05-18T10:49:03.758Z,0.20
2023-05-18T10:51:32.466Z,0.20
2023-05-18T10:54:12.300Z,0.20
2023-05-18T10:56:47.822Z,0.20
2023-05-18T10:59:18.442Z,0.20
2023-05-18T11:01:49.072Z,0.20
2023-05-18T11:04:17.526Z,0.20
2023-05-18T11:06:55.681Z,0.20
2023-05-18T11:09:26.170Z,0.20
2023-05-18T11:11:58.816Z,0.20
2023-05-18T11:14:28.408Z,0.20
2023-05-18T11:17:20.157Z,0.20
2023-05-18T11:20:15.537Z,0.20
2023-05-18T11:22:52.884Z,0.20
2023-05-18T11:25:45.797Z,0.20
2023-05-18T11:28:23.711Z,0.20
2023-05-18T11:30:53.331Z,0.10
2023-05-18T11:33:27.997Z,0.20
2023-05-18T11:36:11.587Z,0.20
2023-05-18T11:38:54.307Z,0.20
2023-05-18T11:41:36.319Z,0.20
2023-05-18T11:44:41.079Z,0.20
2023-05-18T11:47:19.777Z,0.20
2023-05-18T11:49:49.227Z,0.20
2023-05-18T11:52:22.417Z,0.20
2023-05-18T11:54:53.030Z,0.20
2023-05-18T11:57:24.746Z,0.20
2023-05-18T11:59:58.375Z,0.20
2023-05-18T12:02:27.973Z,0.20
2023-05-18T12:04:58.537Z,0.20
2023-05-18T12:07:28.302Z,0.20
2023-05-18T12:09:59.605Z,0.20
2023-05-18T12:12:31.816Z,0.13
2023-05-18T12:15:03.730Z,0.10
2023-05-18T12:17:40.396Z,0.20
2023-05-18T12:20:10.094Z,0.20
2023-05-18T12:22:38.397Z,0.10
2023-05-18T12:25:07.985Z,0.20
2023-05-18T12:27:43.891Z,0.20
2023-05-18T12:30:46.901Z,0.10
2023-05-18T12:33:20.091Z,0.20
2023-05-18T12:35:59.892Z,0.20
2023-05-18T12:38:33.512Z,0.20
2023-05-18T12:41:34.048Z,0.20
2023-05-18T12:44:03.024Z,0.20
2023-05-18T12:46:34.048Z,0.20
2023-05-18T12:49:04.917Z,0.20
2023-05-18T12:51:38.571Z,0.20
2023-05-18T12:54:35.379Z,0.13
2023-05-18T12:57:10.060Z,0.13
2023-05-18T12:59:49.139Z,0.20
2023-05-18T13:02:34.898Z,0.10
2023-05-18T13:05:08.791Z,0.10
2023-05-18T13:07:38.640Z,0.10
2023-05-18T13:10:44.751Z,0.10
2023-05-18T13:13:29.053Z,0.17
2023-05-18T13:19:37.932Z,0.10
2023-05-18T13:22:25.178Z,0.20
2023-05-18T13:25:23.970Z,0.10
2023-05-18T13:28:16.675Z,0.20
2023-05-18T13:30:50.294Z,0.10
2023-05-18T13:33:30.136Z,0.20
2023-05-18T13:36:06.885Z,0.10
2023-05-18T13:38:37.711Z,0.20
2023-05-18T13:41:07.672Z,0.20
2023-05-18T13:43:36.589Z,0.20
2023-05-18T13:46:07.505Z,0.20
2023-05-18T13:48:35.929Z,0.10
2023-05-18T13:51:13.513Z,0.20
2023-05-18T13:54:02.455Z,0.20
2023-05-18T13:56:30.701Z,0.20
2023-05-18T13:58:59.202Z,0.20
2023-05-18T14:01:38.919Z,0.10
2023-05-18T14:04:08.009Z,0.10
2023-05-18T14:06:39.095Z,0.17
2023-05-18T14:09:10.677Z,0.10
2023-05-18T14:11:41.540Z,0.10
2023-05-18T14:14:13.088Z,0.10
2023-05-18T14:16:41.547Z,0.10
2023-05-18T14:19:10.302Z,0.10
2023-05-18T14:21:41.722Z,0.10
2023-05-18T14:24:11.327Z,0.10
2023-05-18T14:26:48.006Z,0.10
2023-05-18T14:29:17.757Z,0.10
2023-05-18T14:31:46.435Z,0.10
2023-05-18T14:34:14.774Z,0.10
2023-05-18T14:36:46.031Z,0.10
2023-05-18T14:39:16.704Z,0.20
2023-05-18T14:41:59.677Z,0.10
2023-05-18T14:44:27.839Z,0.10
2023-05-18T14:47:22.061Z,0.10
2023-05-18T14:49:56.057Z,0.20
2023-05-18T14:52:42.845Z,0.20
2023-05-18T14:55:12.372Z,0.10
2023-05-18T14:57:41.700Z,0.10
2023-05-18T15:00:13.200Z,0.10
2023-05-18T15:02:42.500Z,0.10
2023-05-18T15:05:11.299Z,0.10
2023-05-18T15:07:40.700Z,0.20
2023-05-18T15:10:10.005Z,0.10
2023-05-18T15:12:38.114Z,0.10
2023-05-18T15:15:07.766Z,0.20
2023-05-18T15:17:35.988Z,0.20
2023-05-18T15:20:04.473Z,0.20
2023-05-18T15:22:35.685Z,0.10
2023-05-18T15:25:07.446Z,0.10
2023-05-18T15:27:38.529Z,0.20
2023-05-18T15:30:12.883Z,0.20
2023-05-18T15:32:42.643Z,0.20
2023-05-18T15:35:11.071Z,0.20
2023-05-18T15:37:40.106Z,0.20
2023-05-18T15:40:15.089Z,0.10
2023-05-18T15:42:44.367Z,0.20
2023-05-18T15:45:14.627Z,0.20
2023-05-18T15:47:45.973Z,0.20
2023-05-18T15:50:14.437Z,0.20
2023-05-18T15:52:42.615Z,0.20
2023-05-18T15:55:12.233Z,0.20
2023-05-18T15:57:40.503Z,0.20
2023-05-18T16:00:09.831Z,0.10
2023-05-18T16:02:38.276Z,0.20
2023-05-18T16:05:12.437Z,0.20
2023-05-18T16:07:47.617Z,0.10
2023-05-18T16:10:26.819Z,0.20
2023-05-18T16:13:00.404Z,0.10
2023-05-18T16:15:29.701Z,0.20
2023-05-18T16:18:09.811Z,0.20
2023-05-18T16:20:42.095Z,0.20
2023-05-18T16:23:20.825Z,0.20
2023-05-18T16:25:52.503Z,0.20
2023-05-18T16:28:20.759Z,0.10
2023-05-18T16:30:48.783Z,0.20
2023-05-18T16:33:17.115Z,0.20
2023-05-18T16:35:46.313Z,0.13
2023-05-18T16:38:14.578Z,0.20
2023-05-18T16:40:48.531Z,0.20
2023-05-18T16:43:18.391Z,0.20
2023-05-18T16:45:50.781Z,0.20
2023-05-18T16:48:18.848Z,0.30
2023-05-18T16:50:47.988Z,0.20
2023-05-18T16:53:16.234Z,0.20
2023-05-18T16:55:48.481Z,0.20
2023-05-18T16:58:17.797Z,0.17
2023-05-18T17:00:45.960Z,0.20
2023-05-18T17:03:18.275Z,0.20
2023-05-18T17:05:46.697Z,0.10
2023-05-18T17:08:15.191Z,0.20
2023-05-18T17:10:43.222Z,0.20
2023-05-18T17:13:11.349Z,0.20
2023-05-18T17:15:41.272Z,0.20
2023-05-18T17:18:10.517Z,0.20
2023-05-18T17:20:38.649Z,0.20
2023-05-18T17:23:06.692Z,0.20
2023-05-18T17:25:34.900Z,0.20
2023-05-18T17:28:02.893Z,0.20
2023-05-18T17:30:32.299Z,0.20
2023-05-18T17:33:02.027Z,0.20
2023-05-18T17:35:30.111Z,0.20
2023-05-18T17:37:58.481Z,0.20
2023-05-18T17:40:27.040Z,0.20
2023-05-18T17:42:55.055Z,0.10
2023-05-18T17:45:26.235Z,0.20
2023-05-18T17:47:54.626Z,0.20
2023-05-18T17:50:25.298Z,0.20
2023-05-18T17:52:53.263Z,0.20
2023-05-18T17:55:23.937Z,0.20
2023-05-18T17:57:52.531Z,0.20
2023-05-18T18:00:21.321Z,0.20
2023-05-18T18:02:49.444Z,0.20
2023-05-18T18:08:48.027Z,0.20
2023-05-18T18:11:16.120Z,0.20
2023-05-18T18:13:44.048Z,0.20
2023-05-18T18:16:13.030Z,0.20
2023-05-18T18:18:42.619Z,0.20
2023-05-18T18:21:12.628Z,0.20
2023-05-18T18:23:41.492Z,0.20
2023-05-18T18:26:09.623Z,0.20
2023-05-18T18:28:43.329Z,0.20
2023-05-18T18:31:20.066Z,0.20
2023-05-18T18:33:51.420Z,0.20
2023-05-18T18:36:20.960Z,0.20
2023-05-18T18:38:50.000Z,0.20
2023-05-18T18:41:18.341Z,0.20
2023-05-18T18:43:46.490Z,0.20
2023-05-18T18:46:14.661Z,0.20
2023-05-18T18:48:42.862Z,0.20
2023-05-18T18:51:10.897Z,0.20
2023-05-18T18:53:41.503Z,0.20
2023-05-18T18:56:09.672Z,0.20
2023-05-18T18:58:37.770Z,0.30
2023-05-18T19:01:05.787Z,0.20
2023-05-18T19:03:34.402Z,0.20
2023-05-18T19:06:02.982Z,0.20
2023-05-18T19:08:31.669Z,0.30
2023-05-18T19:11:01.177Z,0.20
2023-05-18T19:13:29.382Z,0.20
2023-05-18T19:15:58.268Z,0.30
2023-05-18T19:18:26.364Z,0.20
2023-05-18T19:20:56.290Z,0.20
2023-05-18T19:23:24.467Z,0.30
2023-05-18T19:25:55.008Z,0.30
2023-05-18T19:28:24.474Z,0.20
2023-05-18T19:30:52.527Z,0.20
2023-05-18T19:33:20.614Z,0.27
2023-05-18T19:35:49.622Z,0.20
2023-05-18T19:38:17.623Z,0.30
2023-05-18T19:40:45.571Z,0.30
2023-05-18T19:43:13.599Z,0.20
2023-05-18T19:45:43.341Z,0.20
2023-05-18T19:48:11.676Z,0.30
2023-05-18T19:50:39.744Z,0.20
2023-05-18T19:53:07.889Z,0.20
2023-05-18T19:55:36.093Z,0.27
2023-05-18T19:58:04.071Z,0.20
2023-05-18T20:00:33.210Z,0.20
2023-05-18T20:03:03.873Z,0.30
2023-05-18T20:05:32.004Z,0.20
2023-05-18T20:08:02.156Z,0.30
2023-05-18T20:10:31.446Z,0.30
2023-05-18T20:12:59.486Z,0.30
2023-05-18T20:15:29.758Z,0.20
2023-05-18T20:17:58.023Z,0.20
2023-05-18T20:20:30.586Z,0.20
2023-05-18T20:22:59.555Z,0.20
2023-05-18T20:25:28.024Z,0.30
2023-05-18T20:28:00.842Z,0.23
2023-05-18T20:30:31.087Z,0.30
2023-05-18T20:33:00.037Z,0.20
2023-05-18T20:35:30.557Z,0.20
2023-05-18T20:37:59.710Z,0.20
2023-05-18T20:40:30.853Z,0.20
2023-05-18T20:43:01.026Z,0.30
2023-05-18T20:45:32.429Z,0.30
2023-05-18T20:48:25.026Z,0.30
2023-05-18T20:51:03.526Z,0.30
2023-05-18T20:53:44.990Z,0.30
2023-05-18T20:56:18.232Z,0.30
2023-05-18T20:59:00.342Z,0.30
2023-05-18T21:01:39.419Z,0.30
2023-05-18T21:04:13.356Z,0.30
2023-05-18T21:06:44.687Z,0.30
2023-05-18T21:09:12.996Z,0.30
2023-05-18T21:11:42.785Z,0.30
2023-05-18T21:14:11.050Z,0.20
2023-05-18T21:16:39.249Z,0.20
2023-05-18T21:19:07.805Z,0.30
2023-05-18T21:21:37.326Z,0.30
2023-05-18T21:24:07.202Z,0.30
2023-05-18T21:26:35.255Z,0.40
2023-05-18T21:29:03.522Z,0.30
2023-05-18T21:31:38.887Z,0.30
2023-05-18T21:34:08.438Z,0.40
2023-05-18T21:36:36.636Z,0.30
2023-05-18T21:39:09.661Z,0.40
2023-05-18T21:41:40.292Z,0.40
2023-05-18T21:44:08.465Z,0.30
2023-05-18T21:46:37.077Z,0.37
2023-05-18T21:49:06.571Z,0.30
2023-05-18T21:51:34.669Z,0.40
2023-05-18T21:54:02.730Z,0.33
2023-05-18T21:56:34.666Z,0.40
2023-05-18T21:59:02.793Z,0.30
2023-05-18T22:01:31.798Z,0.30
2023-05-18T22:03:59.796Z,0.30
2023-05-18T22:06:29.046Z,0.30
2023-05-18T22:08:58.546Z,0.30
2023-05-18T22:11:26.703Z,0.30
2023-05-18T22:13:56.512Z,0.30
2023-05-18T22:16:24.431Z,0.30
2023-05-18T22:18:52.558Z,0.30
2023-05-18T22:21:22.929Z,0.30
2023-05-18T22:23:56.705Z,0.40
2023-05-18T22:26:24.682Z,0.30
2023-05-18T22:28:53.660Z,0.37
2023-05-18T22:31:23.095Z,0.30
2023-05-18T22:33:53.958Z,0.30
2023-05-18T22:36:22.873Z,0.20
2023-05-18T22:38:52.524Z,0.30
2023-05-18T22:41:21.973Z,0.30
2023-05-18T22:43:49.988Z,0.40
2023-05-18T22:46:18.230Z,0.30
2023-05-18T22:48:48.073Z,0.40
2023-05-18T22:51:18.756Z,0.40
2023-05-18T22:53:47.039Z,0.30
2023-05-18T22:56:20.225Z,0.40
2023-05-18T22:58:49.266Z,0.30
2023-05-18T23:01:17.354Z,0.30
2023-05-18T23:03:45.819Z,0.30
2023-05-18T23:06:15.450Z,0.30
2023-05-18T23:08:44.045Z,0.30
2023-05-18T23:11:12.069Z,0.20
2023-05-18T23:13:39.932Z,0.30
2023-05-18T23:16:10.414Z,0.40
2023-05-18T23:18:40.086Z,0.40
2023-05-18T23:21:10.503Z,0.30
2023-05-18T23:23:40.299Z,0.40
2023-05-18T23:26:09.362Z,0.40
2023-05-18T23:28:38.340Z,0.30
2023-05-18T23:31:06.733Z,0.50
2023-05-18T23:33:35.564Z,0.40
2023-05-18T23:36:04.757Z,0.40
2023-05-18T23:38:37.835Z,0.20
2023-05-18T23:41:10.550Z,0.40
2023-05-18T23:43:39.999Z,0.30
2023-05-18T23:46:10.355Z,0.40
2023-05-18T23:48:39.019Z,0.43
2023-05-18T23:51:09.504Z,0.40
2023-05-18T23:53:38.181Z,0.47
2023-05-18T23:56:09.079Z,0.40
2023-05-18T23:58:37.599Z,0.40
